Time;durP1;ratioP1;P1;durP2;ratioP2;P2;SDS_P1;SDS_P2;PMS_P1;PMS_P2;Temp;Humidity;BMP_temperature;BMP_pressure;BME280_temperature;BME280_humidity;BME280_pressure;Samples;Min_cycle;Max_cycle;Signal;HPM_P1;HPM_P2
2023/01/02 00:01:29;;;;;;;;;;;;;;;10.08;66.77;98281.56;5010373;28;19932;-73
2023/01/02 00:03:57;;;;;;;;;;;;;;;10.05;66.36;98279.44;5031124;28;20314;-73
2023/01/02 00:06:25;;;;;;;;;;;;;;;10.16;66.03;98278.16;5034556;28;19925;-74
2023/01/02 00:08:56;;;;;;;;;;;;;;;9.94;67.19;98285.03;5034228;28;20378;-73
2023/01/02 00:11:23;;;;;;;;;;;;;;;9.97;66.79;98279.03;5028508;28;19925;-74
2023/01/02 00:13:51;;;;;;;;;;;;;;;9.84;67.61;98285.22;5028713;28;19947;-74
2023/01/02 00:16:19;;;;;;;;;;;;;;;9.92;66.85;98275.59;5033352;28;19925;-74
2023/01/02 00:18:47;;;;;;;;;;;;;;;9.77;67.38;98260.38;5025995;28;19933;-74
2023/01/02 00:21:15;;;;;;;;;;;;;;;9.78;67.99;98269.31;5026855;28;20439;-74
2023/01/02 00:23:43;;;;;;;;;;;;;;;9.65;67.80;98260.84;5013761;28;19925;-74
2023/01/02 00:26:13;;;;;;;;;;;;;;;9.60;68.81;98265.56;5013224;28;20406;-74
2023/01/02 00:28:41;;;;;;;;;;;;;;;9.61;68.91;98267.97;5029926;28;19931;-74
2023/01/02 00:31:12;;;;;;;;;;;;;;;9.55;69.35;98266.44;5025272;28;20337;-74
2023/01/02 00:33:40;;;;;;;;;;;;;;;9.59;69.31;98264.75;5029802;28;20371;-74
2023/01/02 00:36:09;;;;;;;;;;;;;;;9.59;68.91;98255.81;5028211;28;19925;-74
2023/01/02 00:38:37;;;;;;;;;;;;;;;9.54;68.83;98245.03;5026439;28;20358;-74
2023/01/02 00:41:05;;;;;;;;;;;;;;;9.51;69.30;98246.41;5030271;28;19933;-74
2023/01/02 00:43:35;;;;;;;;;;;;;;;9.52;69.48;98249.94;5027335;28;19925;-74
2023/01/02 00:46:28;;;;;;;;;;;;;;;9.50;69.68;98233.16;5030675;28;20041;-74
2023/01/02 00:48:56;;;;;;;;;;;;;;;9.53;69.11;98246.13;5025485;28;19932;-74
2023/01/02 00:51:24;;;;;;;;;;;;;;;9.55;68.79;98233.88;5033643;28;19929;-74
2023/01/02 00:53:54;;;;;;;;;;;;;;;9.48;68.64;98246.19;5028950;28;20321;-73
2023/01/02 00:59:16;;;;;;;;;;;;;;;9.64;67.68;98240.25;5024916;28;19925;-74
2023/01/02 01:01:46;;;;;;;;;;;;;;;9.65;68.04;98243.75;5029952;28;19925;-73
2023/01/02 01:04:15;;;;;;;;;;;;;;;9.73;68.01;98234.94;5029060;28;19929;-74
2023/01/02 01:06:43;;;;;;;;;;;;;;;9.71;67.95;98232.53;5028321;28;20306;-74
2023/01/02 01:09:12;;;;;;;;;;;;;;;9.77;68.33;98222.38;5035573;28;19970;-73
2023/01/02 01:11:40;;;;;;;;;;;;;;;9.78;67.26;98215.84;5015606;28;20050;-74
2023/01/02 01:14:10;;;;;;;;;;;;;;;9.75;67.32;98205.63;5031460;28;19925;-73
2023/01/02 01:16:39;;;;;;;;;;;;;;;9.81;68.06;98207.13;5028529;28;20007;-73
2023/01/02 01:19:07;;;;;;;;;;;;;;;9.77;67.46;98197.97;5033659;28;20315;-73
2023/01/02 01:21:35;;;;;;;;;;;;;;;9.84;67.31;98206.50;5035993;28;19933;-74
2023/01/02 01:24:02;;;;;;;;;;;;;;;9.81;67.83;98209.03;5030204;28;19936;-74
2023/01/02 01:29:23;;;;;;;;;;;;;;;9.83;67.54;98213.06;5034268;28;20043;-74
2023/01/02 01:31:52;;;;;;;;;;;;;;;9.87;67.05;98208.66;5021629;28;19925;-73
2023/01/02 01:34:20;;;;;;;;;;;;;;;9.91;67.80;98204.22;5033440;28;19929;-74
2023/01/02 01:36:48;;;;;;;;;;;;;;;9.92;67.21;98205.84;5030975;28;19980;-74
2023/01/02 01:39:16;;;;;;;;;;;;;;;9.92;66.50;98205.03;5014759;28;19929;-74
2023/01/02 01:41:45;;;;;;;;;;;;;;;10.05;66.07;98200.72;5030316;28;19951;-70
2023/01/02 01:44:31;;;;;;;;;;;;;;;10.08;66.11;98197.41;5027403;28;19926;-73
2023/01/02 01:47:01;;;;;;;;;;;;;;;10.05;65.88;98208.84;5004786;28;19932;-73
2023/01/02 01:49:29;;;;;;;;;;;;;;;10.02;65.73;98210.28;5021135;28;19932;-74
2023/01/02 01:51:58;;;;;;;;;;;;;;;10.06;67.06;98215.88;5030854;28;19932;-73
2023/01/02 01:54:26;;;;;;;;;;;;;;;10.07;65.58;98203.94;5015328;28;20333;-73
2023/01/02 01:56:55;;;;;;;;;;;;;;;10.21;64.79;98191.16;5036940;28;19925;-73
2023/01/02 01:59:24;;;;;;;;;;;;;;;10.30;64.42;98194.81;5027191;28;19930;-73
2023/01/02 02:01:51;;;;;;;;;;;;;;;10.28;64.57;98193.50;5031972;28;19972;-73
2023/01/02 02:04:21;;;;;;;;;;;;;;;10.25;64.70;98202.28;5013968;28;19925;-73
2023/01/02 02:06:49;;;;;;;;;;;;;;;10.19;65.33;98194.19;5013525;28;20267;-74
2023/01/02 02:09:18;;;;;;;;;;;;;;;10.17;65.14;98195.59;5015622;28;19926;-73
2023/01/02 02:11:46;;;;;;;;;;;;;;;10.13;66.85;98194.59;4992297;28;19936;-72
2023/01/02 02:14:14;;;;;;;;;;;;;;;10.05;66.44;98189.84;5012280;28;20346;-71
2023/01/02 02:16:43;;;;;;;;;;;;;;;9.97;66.03;98186.75;5013671;28;19925;-74
2023/01/02 02:19:20;;;;;;;;;;;;;;;9.96;66.31;98179.72;5005010;28;20351;-72
2023/01/02 02:21:56;;;;;;;;;;;;;;;9.91;67.28;98182.53;5009026;28;19945;-73
2023/01/02 02:24:42;;;;;;;;;;;;;;;9.88;67.35;98179.59;4994592;28;20279;-73
2023/01/02 02:27:18;;;;;;;;;;;;;;;9.84;67.50;98176.66;5006761;28;19932;-73
2023/01/02 02:30:15;;;;;;;;;;;;;;;9.87;67.39;98181.50;5007207;28;19996;-74
2023/01/02 02:32:58;;;;;;;;;;;;;;;9.87;67.98;98178.78;5009321;28;19929;-73
2023/01/02 02:35:29;;;;;;;;;;;;;;;9.92;67.04;98167.84;4992898;28;19926;-73
2023/01/02 02:38:03;;;;;;;;;;;;;;;9.88;67.43;98172.25;5009409;28;20306;-73
2023/01/02 02:40:34;;;;;;;;;;;;;;;9.85;67.08;98172.84;5004809;28;19933;-73
2023/01/02 02:43:03;;;;;;;;;;;;;;;9.83;67.38;98171.53;5009218;28;20385;-73
2023/01/02 02:45:34;;;;;;;;;;;;;;;9.83;67.50;98169.63;5011753;28;19925;-74
2023/01/02 02:48:04;;;;;;;;;;;;;;;9.83;67.41;98172.34;5011840;28;19925;-73
2023/01/02 02:50:34;;;;;;;;;;;;;;;9.78;67.09;98160.78;5003148;28;19929;-73
2023/01/02 02:53:27;;;;;;;;;;;;;;;9.75;66.75;98164.09;5008251;28;19933;-73
2023/01/02 02:55:58;;;;;;;;;;;;;;;9.73;67.11;98156.25;5006879;28;19957;-73
2023/01/02 02:58:26;;;;;;;;;;;;;;;9.78;67.38;98153.44;4999009;28;20294;-74
2023/01/02 03:01:01;;;;;;;;;;;;;;;9.70;67.19;98157.66;5014112;28;19933;-73
2023/01/02 03:03:29;;;;;;;;;;;;;;;9.68;67.30;98146.28;5022112;28;19925;-72
2023/01/02 03:06:05;;;;;;;;;;;;;;;9.67;67.57;98150.13;5031005;28;19932;-74
2023/01/02 03:09:00;;;;;;;;;;;;;;;9.69;67.40;98149.81;5034863;28;19931;-74
2023/01/02 03:11:31;;;;;;;;;;;;;;;9.68;67.76;98150.91;5029756;28;19932;-73
2023/01/02 03:14:00;;;;;;;;;;;;;;;9.68;67.21;98153.63;5026841;28;19959;-74
2023/01/02 03:16:30;;;;;;;;;;;;;;;9.70;67.22;98154.97;5013714;28;19932;-73
2023/01/02 03:18:58;;;;;;;;;;;;;;;9.63;66.75;98151.00;5030432;28;19929;-73
2023/01/02 03:21:52;;;;;;;;;;;;;;;9.72;66.27;98138.38;5030302;28;20432;-73
2023/01/02 03:24:21;;;;;;;;;;;;;;;9.68;66.96;98146.28;5026870;28;19926;-73
2023/01/02 03:26:51;;;;;;;;;;;;;;;9.68;67.24;98145.50;5031363;28;19925;-73
2023/01/02 03:29:20;;;;;;;;;;;;;;;9.68;67.13;98140.06;5034045;28;19970;-73
2023/01/02 03:31:50;;;;;;;;;;;;;;;9.70;67.38;98144.09;5028444;28;19957;-73
2023/01/02 03:34:19;;;;;;;;;;;;;;;9.68;66.95;98134.63;5028082;28;19925;-73
2023/01/02 03:36:48;;;;;;;;;;;;;;;9.67;67.00;98131.13;5020313;28;19932;-73
2023/01/02 03:39:16;;;;;;;;;;;;;;;9.60;66.80;98119.06;5013456;28;20148;-73
2023/01/02 03:41:45;;;;;;;;;;;;;;;9.67;67.44;98114.06;5031166;28;19929;-71
2023/01/02 03:44:12;;;;;;;;;;;;;;;9.66;67.77;98128.72;5029301;28;19925;-73
2023/01/02 03:46:42;;;;;;;;;;;;;;;9.70;67.23;98122.41;5030325;28;19925;-73
2023/01/02 03:49:12;;;;;;;;;;;;;;;9.62;67.23;98122.28;5033093;28;19932;-73
2023/01/02 03:51:41;;;;;;;;;;;;;;;9.57;66.86;98120.47;5019143;28;20337;-73
2023/01/02 03:54:09;;;;;;;;;;;;;;;9.70;66.54;98116.97;5033252;28;19960;-73
2023/01/02 03:56:40;;;;;;;;;;;;;;;9.68;67.05;98115.66;5030253;28;20398;-73
2023/01/02 03:59:09;;;;;;;;;;;;;;;9.64;66.97;98117.34;5021988;28;19926;-73
2023/01/02 04:01:38;;;;;;;;;;;;;;;9.71;66.76;98112.34;5030715;28;20289;-72
2023/01/02 04:04:08;;;;;;;;;;;;;;;9.66;67.16;98115.97;5030512;28;19928;-73
2023/01/02 04:06:39;;;;;;;;;;;;;;;9.67;66.84;98114.84;5029555;28;19971;-73
2023/01/02 04:09:07;;;;;;;;;;;;;;;9.68;66.94;98116.44;5033876;28;19925;-73
2023/01/02 04:11:36;;;;;;;;;;;;;;;9.68;66.84;98112.94;5028989;28;19925;-73
2023/01/02 04:14:05;;;;;;;;;;;;;;;9.67;67.33;98116.75;5018659;28;19925;-73
2023/01/02 04:16:33;;;;;;;;;;;;;;;9.70;66.73;98114.25;5021746;28;20378;-72
2023/01/02 04:21:57;;;;;;;;;;;;;;;9.68;66.29;98110.22;5014047;28;19930;-71
2023/01/02 04:24:26;;;;;;;;;;;;;;;9.69;66.75;98118.09;5013682;28;19929;-73
2023/01/02 04:26:55;;;;;;;;;;;;;;;9.75;66.15;98121.50;5013006;28;20007;-73
2023/01/02 04:29:24;;;;;;;;;;;;;;;9.71;66.64;98121.28;5035625;28;19933;-73
2023/01/02 04:31:53;;;;;;;;;;;;;;;9.77;66.24;98122.00;5028442;28;19925;-70
2023/01/02 04:34:21;;;;;;;;;;;;;;;9.71;66.56;98124.00;5028306;28;19926;-73
2023/01/02 04:36:49;;;;;;;;;;;;;;;9.69;66.98;98130.81;5034560;28;20390;-72
2023/01/02 04:39:21;;;;;;;;;;;;;;;9.71;67.00;98134.06;5029195;28;19964;-73
2023/01/02 04:41:50;;;;;;;;;;;;;;;9.78;66.28;98134.44;5030408;28;19925;-73
2023/01/02 04:44:18;;;;;;;;;;;;;;;9.75;66.64;98136.94;5028353;28;19929;-72
2023/01/02 04:46:46;;;;;;;;;;;;;;;9.73;66.91;98139.97;5031566;28;20362;-73
2023/01/02 04:49:14;;;;;;;;;;;;;;;9.69;67.02;98142.50;5016399;28;19968;-74
2023/01/02 04:51:43;;;;;;;;;;;;;;;9.68;67.66;98140.06;5023221;28;19925;-73
2023/01/02 04:54:11;;;;;;;;;;;;;;;9.70;67.82;98132.44;5034249;28;19929;-73
2023/01/02 04:56:45;;;;;;;;;;;;;;;9.69;66.87;98138.97;5026111;28;19940;-73
2023/01/02 04:59:13;;;;;;;;;;;;;;;9.66;66.68;98136.84;5036989;28;19925;-72
2023/01/02 05:01:41;;;;;;;;;;;;;;;9.65;67.72;98140.69;5033094;28;20375;-73
2023/01/02 05:04:08;;;;;;;;;;;;;;;9.63;67.35;98142.88;5031769;28;19925;-71
2023/01/02 05:06:36;;;;;;;;;;;;;;;9.61;66.97;98139.66;5029546;28;19948;-73
2023/01/02 05:09:05;;;;;;;;;;;;;;;9.62;67.56;98136.66;5036625;28;20015;-72
2023/01/02 05:11:34;;;;;;;;;;;;;;;9.63;67.45;98142.88;5030477;28;20383;-73
2023/01/02 05:14:03;;;;;;;;;;;;;;;9.60;67.33;98132.63;5032636;28;20389;-74
2023/01/02 05:16:36;;;;;;;;;;;;;;;9.60;67.22;98132.63;5038218;28;19929;-73
2023/01/02 05:19:29;;;;;;;;;;;;;;;9.60;67.03;98144.28;5033214;28;20320;-73
2023/01/02 05:24:42;;;;;;;;;;;;;;;9.60;67.13;98132.63;5024750;28;20268;-73
2023/01/02 05:27:13;;;;;;;;;;;;;;;9.61;67.56;98134.25;5021020;28;20049;-73
2023/01/02 05:29:44;;;;;;;;;;;;;;;9.52;68.08;98139.53;5041518;28;19957;-73
2023/01/02 05:32:12;;;;;;;;;;;;;;;9.53;68.06;98146.56;5020498;28;19925;-73
2023/01/02 05:34:39;;;;;;;;;;;;;;;9.53;68.25;98151.19;5030256;28;19933;-73
2023/01/02 05:37:10;;;;;;;;;;;;;;;9.55;67.28;98146.28;5032697;28;20339;-73
2023/01/02 05:39:38;;;;;;;;;;;;;;;9.49;67.75;98142.06;5031649;28;19929;-73
2023/01/02 05:42:06;;;;;;;;;;;;;;;9.53;67.95;98148.47;5032633;28;19929;-73
2023/01/02 05:44:35;;;;;;;;;;;;;;;9.52;67.62;98142.25;5032696;28;19925;-73
2023/01/02 05:47:04;;;;;;;;;;;;;;;9.57;67.47;98155.72;5032091;28;19932;-73
2023/01/02 05:49:32;;;;;;;;;;;;;;;9.59;67.01;98148.13;5032249;28;19932;-73
2023/01/02 05:52:00;;;;;;;;;;;;;;;9.60;66.93;98148.91;5031412;28;20001;-73
2023/01/02 05:54:28;;;;;;;;;;;;;;;9.57;67.46;98155.72;5033087;28;19932;-73
2023/01/02 05:56:56;;;;;;;;;;;;;;;9.58;67.08;98148.38;5008972;28;19929;-72
2023/01/02 05:59:24;;;;;;;;;;;;;;;9.56;67.50;98154.13;5014306;28;20413;-73
2023/01/02 06:01:53;;;;;;;;;;;;;;;9.51;67.18;98151.50;5028954;28;19924;-73
2023/01/02 06:04:22;;;;;;;;;;;;;;;9.53;67.39;98151.19;5032863;28;20295;-72
2023/01/02 06:06:50;;;;;;;;;;;;;;;9.56;66.64;98153.31;5030420;28;19937;-73
2023/01/02 06:09:20;;;;;;;;;;;;;;;9.49;67.08;98142.88;5041753;28;20301;-70
2023/01/02 06:11:48;;;;;;;;;;;;;;;9.53;66.33;98138.44;5029226;28;19925;-72
2023/01/02 06:14:15;;;;;;;;;;;;;;;9.58;67.08;98151.91;5033452;28;19925;-73
2023/01/02 06:16:44;;;;;;;;;;;;;;;9.57;67.51;98154.91;5013877;28;19925;-69
2023/01/02 06:19:15;;;;;;;;;;;;;;;9.57;67.67;98161.16;5030434;28;19932;-73
2023/01/02 06:21:47;;;;;;;;;;;;;;;9.61;66.88;98156.75;5009816;28;19925;-73
2023/01/02 06:24:15;;;;;;;;;;;;;;;9.59;67.44;98153.53;5030762;28;19925;-73
2023/01/02 06:26:43;;;;;;;;;;;;;;;9.60;67.26;98157.06;5002088;28;21396;-71
2023/01/02 06:29:12;;;;;;;;;;;;;;;9.60;66.46;98154.34;5030793;28;19929;-73
2023/01/02 06:31:40;;;;;;;;;;;;;;;9.66;66.27;98150.44;5028188;28;19936;-73
2023/01/02 06:34:11;;;;;;;;;;;;;;;9.63;66.83;98159.16;5030072;28;19944;-73
2023/01/02 06:36:39;;;;;;;;;;;;;;;9.63;67.12;98159.16;5031813;28;19932;-73
2023/01/02 06:39:08;;;;;;;;;;;;;;;9.65;66.92;98157.75;5030050;28;19924;-72
2023/01/02 06:41:36;;;;;;;;;;;;;;;9.63;66.66;98153.72;5031975;28;19925;-73
2023/01/02 06:44:04;;;;;;;;;;;;;;;9.67;66.27;98160.97;5031917;28;19933;-73
2023/01/02 06:46:32;;;;;;;;;;;;;;;9.69;67.15;98163.38;5013229;28;19947;-73
2023/01/02 06:49:00;;;;;;;;;;;;;;;9.62;66.25;98163.78;5011268;28;19933;-73
2023/01/02 06:51:28;;;;;;;;;;;;;;;9.57;66.31;98165.78;5028821;28;19925;-73
2023/01/02 06:53:56;;;;;;;;;;;;;;;9.60;66.28;98168.69;5031655;28;19972;-73
2023/01/02 06:56:33;;;;;;;;;;;;;;;9.68;66.55;98167.19;5013473;28;19928;-72
2023/01/02 06:59:02;;;;;;;;;;;;;;;9.68;66.88;98172.63;5031536;28;19944;-73
2023/01/02 07:01:30;;;;;;;;;;;;;;;9.61;66.66;98172.22;5014827;28;20442;-73
2023/01/02 07:03:58;;;;;;;;;;;;;;;9.67;67.03;98176.44;5029827;28;19929;-73
2023/01/02 07:06:26;;;;;;;;;;;;;;;9.67;66.32;98171.81;5031928;28;19925;-73
2023/01/02 07:08:55;;;;;;;;;;;;;;;9.74;66.79;98174.13;5032278;28;19932;-72
2023/01/02 07:11:23;;;;;;;;;;;;;;;9.78;65.91;98177.88;5032365;28;20446;-73
2023/01/02 07:13:53;;;;;;;;;;;;;;;9.70;66.06;98165.00;5032137;28;19960;-64
2023/01/02 07:16:41;;;;;;;;;;;;;;;9.75;66.17;98170.34;5027323;28;20034;-64
2023/01/02 07:19:15;;;;;;;;;;;;;;;9.73;66.27;98175.25;5030378;28;19932;-64
2023/01/02 07:21:48;;;;;;;;;;;;;;;9.66;66.15;98178.34;5021267;28;19932;-64
2023/01/02 07:24:16;;;;;;;;;;;;;;;9.75;66.36;98178.47;5038015;28;19976;-64
2023/01/02 07:26:44;;;;;;;;;;;;;;;9.75;66.24;98186.63;5012581;28;19925;-64
2023/01/02 07:29:14;;;;;;;;;;;;;;;9.83;65.94;98185.91;5027556;28;19925;-64
2023/01/02 07:31:42;;;;;;;;;;;;;;;9.76;65.82;98174.66;5025296;28;19925;-64
2023/01/02 07:34:13;;;;;;;;;;;;;;;9.81;66.07;98181.91;5030057;28;19932;-64
2023/01/02 07:36:43;;;;;;;;;;;;;;;9.86;65.62;98182.63;5028167;28;19932;-64
2023/01/02 07:39:11;;;;;;;;;;;;;;;9.82;66.51;98183.50;5012395;28;19975;-65
2023/01/02 07:41:40;;;;;;;;;;;;;;;9.85;66.17;98196.47;5031496;28;19971;-64
2023/01/02 07:44:15;;;;;;;;;;;;;;;9.80;66.07;98191.97;5008358;28;19925;-65
2023/01/02 07:46:43;;;;;;;;;;;;;;;9.84;66.30;98195.66;5029115;28;19936;-64
2023/01/02 07:49:12;;;;;;;;;;;;;;;9.81;65.37;98193.56;5012150;28;19932;-65
2023/01/02 07:51:40;;;;;;;;;;;;;;;9.71;65.69;98196.47;5027796;28;19976;-64
2023/01/02 07:54:09;;;;;;;;;;;;;;;9.87;66.31;98199.69;5029397;28;19925;-64
2023/01/02 07:56:37;;;;;;;;;;;;;;;9.91;65.50;98198.00;5028161;28;19937;-64
2023/01/02 07:59:05;;;;;;;;;;;;;;;9.94;65.33;98195.47;5032585;28;19929;-64
2023/01/02 08:01:34;;;;;;;;;;;;;;;9.91;65.92;98198.81;5012784;28;19933;-64
2023/01/02 08:04:03;;;;;;;;;;;;;;;9.97;65.57;98202.22;5008545;28;20704;-64
2023/01/02 08:06:32;;;;;;;;;;;;;;;9.91;66.17;98196.09;5011210;28;19991;-64
2023/01/02 08:09:00;;;;;;;;;;;;;;;9.94;65.85;98200.09;5022809;28;20398;-64
2023/01/02 08:11:28;;;;;;;;;;;;;;;9.96;66.13;98201.44;5010488;28;19933;-64
2023/01/02 08:13:58;;;;;;;;;;;;;;;10.00;65.11;98203.53;5001617;28;19932;-64
2023/01/02 08:16:25;;;;;;;;;;;;;;;9.98;65.58;98192.97;5011429;28;19948;-64
2023/01/02 08:18:55;;;;;;;;;;;;;;;10.09;65.04;98204.44;5025561;28;19929;-64
2023/01/02 08:21:24;;;;;;;;;;;;;;;10.05;65.87;98204.22;5010161;28;19987;-65
2023/01/02 08:24:18;;;;;;;;;;;;;;;10.09;65.01;98207.16;5008857;28;20651;-64
2023/01/02 08:26:46;;;;;;;;;;;;;;;10.16;65.40;98205.66;5008838;28;19933;-64
2023/01/02 08:29:15;;;;;;;;;;;;;;;10.23;64.71;98207.97;5011413;28;19937;-65
2023/01/02 08:31:43;;;;;;;;;;;;;;;10.24;65.34;98212.31;5002916;28;20374;-64
2023/01/02 08:34:13;;;;;;;;;;;;;;;10.27;65.21;98217.13;5009260;28;19994;-65
2023/01/02 08:36:42;;;;;;;;;;;;;;;10.33;64.75;98212.41;5009780;28;19932;-67
2023/01/02 08:39:12;;;;;;;;;;;;;;;10.39;64.41;98209.31;5026985;28;20021;-66
2023/01/02 08:41:40;;;;;;;;;;;;;;;10.44;64.24;98211.13;5012918;28;19949;-68
2023/01/02 08:44:09;;;;;;;;;;;;;;;10.38;64.65;98212.31;5013581;28;19968;-65
2023/01/02 08:46:37;;;;;;;;;;;;;;;10.45;64.30;98224.41;5009089;28;19925;-64
2023/01/02 08:49:09;;;;;;;;;;;;;;;10.50;64.11;98223.50;5010532;28;19940;-64
2023/01/02 08:51:39;;;;;;;;;;;;;;;10.61;63.55;98229.53;5010666;28;20437;-65
2023/01/02 08:54:07;;;;;;;;;;;;;;;10.67;64.23;98233.75;5004538;28;19940;-64
2023/01/02 08:56:36;;;;;;;;;;;;;;;10.65;64.09;98227.78;5005915;28;19926;-64
2023/01/02 08:59:05;;;;;;;;;;;;;;;10.67;63.18;98231.81;5007264;28;19930;-64
2023/01/02 09:01:33;;;;;;;;;;;;;;;10.69;63.48;98234.22;5008157;28;19934;-65
2023/01/02 09:04:02;;;;;;;;;;;;;;;10.67;64.04;98242.69;5023661;28;19929;-64
2023/01/02 09:06:40;;;;;;;;;;;;;;;10.70;64.24;98244.78;5029521;28;19999;-63
2023/01/02 09:09:08;;;;;;;;;;;;;;;10.77;63.34;98247.13;5026061;28;19948;-63
2023/01/02 09:11:39;;;;;;;;;;;;;;;10.90;63.02;98256.34;5022582;28;19979;-65
2023/01/02 09:14:07;;;;;;;;;;;;;;;10.99;62.82;98262.69;5028246;28;19936;-64
2023/01/02 09:16:35;;;;;;;;;;;;;;;11.11;63.14;98257.50;5030481;28;20367;-64
2023/01/02 09:19:28;;;;;;;;;;;;;;;11.15;62.58;98261.22;5031698;28;19925;-64
2023/01/02 09:22:00;;;;;;;;;;;;;;;11.17;62.54;98253.56;5022412;28;19978;-64
2023/01/02 09:24:28;;;;;;;;;;;;;;;11.20;62.73;98265.75;5025704;28;19925;-64
2023/01/02 09:26:56;;;;;;;;;;;;;;;11.16;62.19;98265.56;5025703;28;19925;-64
2023/01/02 09:29:24;;;;;;;;;;;;;;;11.20;61.76;98266.56;5008280;28;19932;-63
2023/01/02 09:31:53;;;;;;;;;;;;;;;11.31;61.53;98264.41;5013101;28;19940;-65
2023/01/02 09:34:20;;;;;;;;;;;;;;;11.29;62.18;98269.34;5012877;28;20422;-64
2023/01/02 09:36:49;;;;;;;;;;;;;;;11.35;61.42;98267.31;5031868;28;19944;-64
2023/01/02 09:39:18;;;;;;;;;;;;;;;11.33;60.82;98266.81;5028589;28;19929;-64
2023/01/02 09:41:47;;;;;;;;;;;;;;;11.50;61.63;98270.50;5027388;28;19948;-65
2023/01/02 09:44:17;;;;;;;;;;;;;;;11.66;60.44;98273.63;5032265;28;19971;-64
2023/01/02 09:46:46;;;;;;;;;;;;;;;11.64;60.01;98275.88;5012409;28;19932;-65
2023/01/02 09:49:16;;;;;;;;;;;;;;;11.67;59.37;98275.25;5033564;28;19925;-64
2023/01/02 09:51:44;;;;;;;;;;;;;;;11.72;59.63;98274.34;5026876;28;19925;-65
2023/01/02 09:54:19;;;;;;;;;;;;;;;11.79;59.79;98271.97;5030333;28;20028;-65
2023/01/02 09:56:47;;;;;;;;;;;;;;;11.91;60.04;98269.50;5030858;28;19929;-64
2023/01/02 09:59:17;;;;;;;;;;;;;;;11.94;59.51;98268.09;5025422;28;19932;-64
2023/01/02 10:01:53;;;;;;;;;;;;;;;12.05;60.04;98270.25;5029847;28;19925;-65
2023/01/02 10:04:24;;;;;;;;;;;;;;;12.10;59.66;98271.25;5026937;28;19971;-65
2023/01/02 10:06:54;;;;;;;;;;;;;;;12.06;58.80;98268.31;5006674;28;20018;-64
2023/01/02 10:09:23;;;;;;;;;;;;;;;12.05;58.89;98270.25;5007284;28;19936;-65
2023/01/02 10:11:54;;;;;;;;;;;;;;;12.04;59.09;98260.47;5028035;28;19940;-65
2023/01/02 10:14:23;;;;;;;;;;;;;;;12.14;59.06;98264.03;5026730;28;19937;-65
2023/01/02 10:17:04;;;;;;;;;;;;;;;12.27;58.13;98260.41;5012392;28;20284;-68
2023/01/02 10:19:35;;;;;;;;;;;;;;;12.18;58.46;98259.56;5029883;28;20302;-65
2023/01/02 10:22:04;;;;;;;;;;;;;;;12.23;59.40;98262.97;5026854;28;19929;-65
2023/01/02 10:24:37;;;;;;;;;;;;;;;12.23;58.28;98260.22;5012392;28;19931;-65
2023/01/02 10:30:04;;;;;;;;;;;;;;;12.32;57.94;98261.09;5027302;28;20283;-65
2023/01/02 10:32:32;;;;;;;;;;;;;;;12.43;57.58;98258.09;5011523;28;19955;-65
2023/01/02 10:35:11;;;;;;;;;;;;;;;12.44;57.66;98268.66;5009349;28;19932;-65
2023/01/02 10:37:41;;;;;;;;;;;;;;;12.55;57.07;98266.47;5029463;28;19925;-65
2023/01/02 10:40:12;;;;;;;;;;;;;;;12.50;57.43;98272.84;5031956;28;19926;-65
2023/01/02 10:42:40;;;;;;;;;;;;;;;12.51;57.53;98271.72;5029405;28;19925;-65
2023/01/02 10:45:30;;;;;;;;;;;;;;;12.62;56.94;98263.25;5014247;28;19929;-65
2023/01/02 10:47:58;;;;;;;;;;;;;;;12.53;57.36;98264.06;5023309;28;19983;-65
2023/01/02 10:50:28;;;;;;;;;;;;;;;12.57;57.30;98262.31;5027252;28;20282;-64
2023/01/02 10:53:05;;;;;;;;;;;;;;;12.63;57.73;98265.69;5023307;28;20327;-64
2023/01/02 10:56:02;;;;;;;;;;;;;;;12.75;57.15;98262.34;5025563;28;19933;-64
2023/01/02 10:58:32;;;;;;;;;;;;;;;12.79;57.52;98261.41;5029596;28;19925;-63
2023/01/02 11:01:04;;;;;;;;;;;;;;;12.82;58.07;98249.84;5027189;28;19936;-65
2023/01/02 11:03:32;;;;;;;;;;;;;;;12.88;57.14;98247.78;5028511;28;19933;-66
2023/01/02 11:06:00;;;;;;;;;;;;;;;12.93;56.98;98249.56;5028660;28;19925;-65
2023/01/02 11:08:55;;;;;;;;;;;;;;;13.07;56.66;98242.03;5025538;28;19980;-67
2023/01/02 11:11:25;;;;;;;;;;;;;;;13.14;56.75;98252.47;5017083;28;19933;-67
2023/01/02 11:14:02;;;;;;;;;;;;;;;13.21;56.27;98252.78;5030324;28;19925;-67
2023/01/02 11:16:31;;;;;;;;;;;;;;;13.22;56.71;98246.28;5034693;28;19931;-65
2023/01/02 11:19:00;;;;;;;;;;;;;;;13.22;55.87;98243.53;5024386;28;19929;-65
2023/01/02 11:21:54;;;;;;;;;;;;;;;13.21;55.39;98239.16;5029432;28;20042;-65
2023/01/02 11:24:25;;;;;;;;;;;;;;;13.21;55.64;98234.56;5025547;28;19975;-65
2023/01/02 11:26:55;;;;;;;;;;;;;;;13.24;56.22;98235.81;5029496;28;19961;-65
2023/01/02 11:29:26;;;;;;;;;;;;;;;13.29;56.72;98241.94;5007175;28;20383;-65
2023/01/02 11:31:56;;;;;;;;;;;;;;;13.35;56.36;98245.28;5029281;28;20675;-65
2023/01/02 11:34:25;;;;;;;;;;;;;;;13.32;54.88;98244.03;5027071;28;19948;-65
2023/01/02 11:37:06;;;;;;;;;;;;;;;13.39;55.08;98249.00;5030541;28;19925;-65
2023/01/02 11:39:34;;;;;;;;;;;;;;;13.40;55.11;98250.59;5008246;28;19925;-64
2023/01/02 11:45:04;;;;;;;;;;;;;;;13.46;54.88;98246.56;4996668;28;19925;-64
2023/01/02 11:47:36;;;;;;;;;;;;;;;13.47;55.18;98259.09;5025828;28;19929;-64
2023/01/02 11:50:04;;;;;;;;;;;;;;;13.50;54.72;98253.00;5026857;28;19933;-64
2023/01/02 11:52:38;;;;;;;;;;;;;;;13.48;54.84;98258.00;5025864;28;19925;-65
2023/01/02 11:55:19;;;;;;;;;;;;;;;13.47;54.91;98250.09;5024362;28;19932;-64
2023/01/02 11:57:50;;;;;;;;;;;;;;;13.53;54.89;98244.19;5028649;28;19925;-64
2023/01/02 12:00:19;;;;;;;;;;;;;;;13.55;54.84;98231.00;5027860;28;19932;-64
2023/01/02 12:02:47;;;;;;;;;;;;;;;13.61;54.33;98243.34;5007890;28;20268;-64
2023/01/02 12:05:16;;;;;;;;;;;;;;;13.68;55.94;98253.78;5006347;28;19972;-63
2023/01/02 12:07:45;;;;;;;;;;;;;;;13.72;54.26;98254.75;5008491;28;19930;-63
2023/01/02 12:10:17;;;;;;;;;;;;;;;13.72;54.58;98264.88;5015734;28;20401;-64
2023/01/02 12:12:48;;;;;;;;;;;;;;;13.70;55.10;98267.13;5010610;28;19934;-63
2023/01/02 12:15:25;;;;;;;;;;;;;;;13.66;56.95;98282.53;4990598;28;19953;-63
2023/01/02 12:17:54;;;;;;;;;;;;;;;13.65;55.18;98272.75;4998172;28;19925;-63
2023/01/02 12:20:31;;;;;;;;;;;;;;;13.71;54.35;98276.91;5000527;28;20016;-63
2023/01/02 12:23:17;;;;;;;;;;;;;;;13.80;52.55;98280.47;5010973;28;20524;-64
2023/01/02 12:25:47;;;;;;;;;;;;;;;13.81;52.37;98282.84;5000745;28;19929;-63
2023/01/02 12:31:22;;;;;;;;;;;;;;;13.99;51.85;98285.56;5005842;28;19936;-63
2023/01/02 12:33:52;;;;;;;;;;;;;;;14.04;51.62;98279.91;4990280;28;19925;-63
2023/01/02 12:36:44;;;;;;;;;;;;;;;14.11;50.36;98281.03;4989065;28;19949;-64
2023/01/02 12:39:20;;;;;;;;;;;;;;;14.10;50.12;98284.88;5005530;28;19933;-63
2023/01/02 12:41:49;;;;;;;;;;;;;;;14.14;50.50;98287.78;4995484;28;19961;-64
2023/01/02 12:44:38;;;;;;;;;;;;;;;14.16;50.41;98286.31;5007046;28;19926;-64
2023/01/02 12:47:38;;;;;;;;;;;;;;;14.24;48.89;98284.69;5006008;28;19929;-67
2023/01/02 12:50:12;;;;;;;;;;;;;;;14.32;49.96;98274.84;5017685;28;19929;-63
2023/01/02 12:52:45;;;;;;;;;;;;;;;14.36;48.98;98278.53;5013579;28;19932;-63
2023/01/02 12:55:22;;;;;;;;;;;;;;;14.41;48.19;98279.16;4992814;28;19925;-64
2023/01/02 12:57:53;;;;;;;;;;;;;;;14.56;47.84;98282.53;5015984;28;19925;-63
2023/01/02 13:00:34;;;;;;;;;;;;;;;14.54;47.37;98285.59;5017573;28;20374;-64
2023/01/02 13:03:28;;;;;;;;;;;;;;;14.38;48.50;98296.25;5018314;28;19948;-64
2023/01/02 13:05:58;;;;;;;;;;;;;;;14.33;47.49;98290.16;5015003;28;19996;-64
2023/01/02 13:08:31;;;;;;;;;;;;;;;14.37;47.24;98296.53;5031368;28;19925;-64
2023/01/02 13:11:00;;;;;;;;;;;;;;;14.31;47.76;98286.91;5031047;28;19936;-64
2023/01/02 13:13:30;;;;;;;;;;;;;;;14.24;48.05;98292.91;5031431;28;19925;-64
2023/01/02 13:15:59;;;;;;;;;;;;;;;14.29;47.30;98300.13;5029240;28;20382;-64
2023/01/02 13:18:32;;;;;;;;;;;;;;;14.33;46.47;98298.34;5028915;28;20386;-64
2023/01/02 13:21:03;;;;;;;;;;;;;;;14.20;48.51;98297.41;5031918;28;19929;-64
2023/01/02 13:23:33;;;;;;;;;;;;;;;14.20;47.31;98296.59;5032096;28;19971;-64
2023/01/02 13:26:02;;;;;;;;;;;;;;;14.20;47.36;98285.66;5030274;28;19929;-64
2023/01/02 13:28:30;;;;;;;;;;;;;;;14.27;46.96;98289.50;5030298;28;19925;-64
2023/01/02 13:31:01;;;;;;;;;;;;;;;14.27;46.48;98289.50;5029482;28;19960;-64
2023/01/02 13:33:49;;;;;;;;;;;;;;;14.36;46.88;98297.69;5032698;28;20024;-64